createdAt,value
2018-11-21T00:02:14.225Z,100.00
2018-11-21T00:04:42.356Z,100.00
2018-11-21T00:07:10.513Z,100.00
2018-11-21T00:09:38.637Z,100.00
2018-11-21T00:12:06.829Z,100.00
2018-11-21T00:14:35.011Z,100.00
2018-11-21T00:17:03.156Z,100.00
2018-11-21T00:19:31.295Z,100.00
2018-11-21T00:21:59.448Z,100.00
2018-11-21T00:24:27.576Z,100.00
2018-11-21T00:26:55.695Z,100.00
2018-11-21T00:29:23.875Z,100.00
2018-11-21T00:31:52.063Z,100.00
2018-11-21T00:34:20.238Z,100.00
2018-11-21T00:36:48.427Z,100.00
2018-11-21T00:39:16.545Z,100.00
2018-11-21T00:41:44.677Z,100.00
2018-11-21T00:44:13.218Z,100.00
2018-11-21T00:46:41.325Z,100.00
2018-11-21T00:49:09.470Z,100.00
2018-11-21T00:51:37.605Z,100.00
2018-11-21T00:54:05.816Z,100.00
2018-11-21T00:56:34.017Z,100.00
2018-11-21T00:59:02.150Z,100.00
2018-11-21T01:01:30.267Z,100.00
2018-11-21T01:03:58.426Z,100.00
2018-11-21T01:06:26.547Z,100.00
2018-11-21T01:08:54.684Z,100.00
2018-11-21T01:11:22.817Z,100.00
2018-11-21T01:13:50.961Z,100.00
2018-11-21T01:16:19.082Z,100.00
2018-11-21T01:18:47.352Z,100.00
2018-11-21T01:21:15.467Z,100.00
2018-11-21T01:23:43.602Z,100.00
2018-11-21T01:26:11.717Z,100.00
2018-11-21T01:28:39.851Z,100.00
2018-11-21T01:31:07.977Z,100.00
2018-11-21T01:33:36.098Z,100.00
2018-11-21T01:36:04.480Z,100.00
2018-11-21T01:38:33.244Z,100.00
2018-11-21T01:41:01.394Z,100.00
2018-11-21T01:43:29.568Z,100.00
2018-11-21T01:45:57.689Z,100.00
2018-11-21T01:48:25.847Z,100.00
2018-11-21T01:50:53.989Z,100.00
2018-11-21T01:53:22.289Z,100.00
2018-11-21T01:55:50.427Z,100.00
2018-11-21T01:58:18.545Z,100.00
2018-11-21T02:00:46.705Z,100.00
2018-11-21T02:03:14.849Z,100.00
2018-11-21T02:05:42.966Z,100.00
2018-11-21T02:08:11.109Z,100.00
2018-11-21T02:10:39.283Z,100.00
2018-11-21T02:13:07.405Z,100.00
2018-11-21T02:15:35.541Z,100.00
2018-11-21T02:18:04.350Z,100.00
2018-11-21T02:20:32.526Z,100.00
2018-11-21T02:23:00.669Z,100.00
2018-11-21T02:25:28.809Z,100.00
2018-11-21T02:27:56.947Z,100.00
2018-11-21T02:30:25.102Z,100.00
2018-11-21T02:32:53.239Z,100.00
2018-11-21T02:35:21.386Z,100.00
2018-11-21T02:37:49.530Z,100.00
2018-11-21T02:40:17.688Z,100.00
2018-11-21T02:42:45.816Z,100.00
2018-11-21T02:45:13.955Z,100.00
2018-11-21T02:47:42.090Z,100.00
2018-11-21T02:50:10.263Z,100.00
2018-11-21T02:52:38.435Z,100.00
2018-11-21T02:55:07.145Z,100.00
2018-11-21T02:57:35.936Z,100.00
2018-11-21T03:00:09.280Z,100.00
2018-11-21T03:02:37.414Z,100.00
2018-11-21T03:05:06.270Z,100.00
2018-11-21T03:07:34.412Z,100.00
2018-11-21T03:10:02.608Z,100.00
2018-11-21T03:12:31.706Z,100.00
2018-11-21T03:14:59.859Z,100.00
2018-11-21T03:17:28.019Z,100.00
2018-11-21T03:19:56.167Z,100.00
2018-11-21T03:22:24.290Z,100.00
2018-11-21T03:24:52.438Z,100.00
2018-11-21T03:27:20.613Z,100.00
2018-11-21T03:29:48.787Z,100.00
2018-11-21T03:32:16.982Z,100.00
2018-11-21T03:34:45.183Z,100.00
2018-11-21T03:37:13.251Z,100.00
2018-11-21T03:39:41.408Z,100.00
2018-11-21T03:42:09.558Z,100.00
2018-11-21T03:44:37.731Z,100.00
2018-11-21T03:47:06.657Z,100.00
2018-11-21T03:49:34.801Z,100.00
2018-11-21T03:52:02.962Z,100.00
2018-11-21T03:54:31.077Z,100.00
2018-11-21T03:56:59.222Z,100.00
2018-11-21T03:59:27.343Z,100.00
2018-11-21T04:01:55.492Z,100.00
2018-11-21T04:04:23.649Z,100.00
2018-11-21T04:06:51.822Z,100.00
2018-11-21T04:09:19.978Z,100.00
2018-11-21T04:11:48.126Z,100.00
2018-11-21T04:14:16.261Z,100.00
2018-11-21T04:16:44.482Z,100.00
2018-11-21T04:19:12.729Z,100.00
2018-11-21T04:21:40.887Z,100.00
2018-11-21T04:24:09.049Z,100.00
2018-11-21T04:26:37.831Z,100.00
2018-11-21T04:29:06.916Z,100.00
2018-11-21T04:31:35.056Z,100.00
2018-11-21T04:34:03.195Z,100.00
2018-11-21T04:36:31.326Z,100.00
2018-11-21T04:38:59.505Z,100.00
2018-11-21T04:41:27.624Z,100.00
2018-11-21T04:43:55.920Z,100.00
2018-11-21T04:46:24.054Z,100.00
2018-11-21T04:48:52.225Z,100.00
2018-11-21T04:51:20.386Z,100.00
2018-11-21T04:53:48.553Z,100.00
2018-11-21T04:56:16.677Z,100.00
2018-11-21T04:58:44.836Z,100.00
2018-11-21T05:01:12.993Z,100.00
2018-11-21T05:03:41.495Z,100.00
2018-11-21T05:06:09.639Z,100.00
2018-11-21T05:08:37.796Z,100.00
2018-11-21T05:11:06.432Z,100.00
2018-11-21T05:13:34.170Z,100.00
2018-11-21T05:16:02.328Z,100.00
2018-11-21T05:18:32.774Z,100.00
2018-11-21T05:21:00.932Z,100.00
2018-11-21T05:23:29.091Z,100.00
2018-11-21T05:25:57.214Z,100.00
2018-11-21T05:28:25.362Z,100.00
2018-11-21T05:30:53.703Z,100.00
2018-11-21T05:33:21.987Z,100.00
2018-11-21T05:35:50.180Z,100.00
2018-11-21T05:38:18.299Z,100.00
2018-11-21T05:40:46.508Z,100.00
2018-11-21T05:43:14.668Z,100.00
2018-11-21T05:45:42.836Z,100.00
2018-11-21T05:48:10.988Z,100.00
2018-11-21T05:50:39.131Z,100.00
2018-11-21T05:53:07.278Z,100.00
2018-11-21T05:55:35.394Z,100.00
2018-11-21T05:58:03.537Z,100.00
2018-11-21T06:00:31.679Z,100.00
2018-11-21T06:02:59.816Z,100.00
2018-11-21T06:05:27.961Z,100.00
2018-11-21T06:07:56.083Z,100.00
2018-11-21T06:10:24.210Z,100.00
2018-11-21T06:12:52.347Z,100.00
2018-11-21T06:15:20.500Z,100.00
2018-11-21T06:17:48.634Z,100.00
2018-11-21T06:20:16.802Z,100.00
2018-11-21T06:22:45.289Z,100.00
2018-11-21T06:25:13.798Z,100.00
2018-11-21T06:27:41.951Z,100.00
2018-11-21T06:30:11.664Z,100.00
2018-11-21T06:32:40.107Z,100.00
2018-11-21T06:35:09.307Z,100.00
2018-11-21T06:37:37.890Z,100.00
2018-11-21T06:40:08.876Z,100.00
2018-11-21T06:42:37.012Z,100.00
2018-11-21T06:45:07.208Z,100.00
2018-11-21T06:47:35.333Z,100.00
2018-11-21T06:50:03.866Z,100.00
2018-11-21T06:52:32.016Z,100.00
2018-11-21T06:55:00.163Z,100.00
2018-11-21T06:57:28.346Z,100.00
2018-11-21T06:59:56.482Z,100.00
2018-11-21T07:02:24.654Z,100.00
2018-11-21T07:04:52.796Z,100.00
2018-11-21T07:07:20.997Z,100.00
2018-11-21T07:09:49.141Z,100.00
2018-11-21T07:12:17.283Z,100.00
2018-11-21T07:14:45.512Z,100.00
2018-11-21T07:17:13.578Z,100.00
2018-11-21T07:19:41.705Z,100.00
2018-11-21T07:22:09.837Z,100.00
2018-11-21T07:24:37.976Z,100.00
2018-11-21T07:27:06.355Z,100.00
2018-11-21T07:29:34.834Z,100.00
2018-11-21T07:32:02.641Z,100.00
2018-11-21T07:34:30.789Z,100.00
2018-11-21T07:36:58.953Z,100.00
2018-11-21T07:39:27.084Z,100.00
2018-11-21T07:41:55.219Z,100.00
2018-11-21T07:44:23.386Z,100.00
2018-11-21T07:46:51.528Z,100.00
2018-11-21T07:49:19.754Z,100.00
2018-11-21T07:51:47.925Z,100.00
2018-11-21T07:54:16.858Z,100.00
2018-11-21T07:57:12.438Z,100.00
2018-11-21T08:00:00.723Z,100.00
2018-11-21T08:02:34.398Z,100.00
2018-11-21T08:05:11.369Z,100.00
2018-11-21T08:07:47.451Z,100.00
2018-11-21T08:10:43.721Z,100.00
2018-11-21T08:13:42.608Z,100.00
2018-11-21T08:16:32.806Z,100.00
2018-11-21T08:19:22.599Z,100.00
2018-11-21T08:22:13.217Z,100.00
2018-11-21T08:25:05.996Z,100.00
2018-11-21T08:27:43.598Z,100.00
2018-11-21T08:30:11.698Z,100.00
2018-11-21T08:32:39.879Z,100.00
2018-11-21T08:35:07.997Z,100.00
2018-11-21T08:37:36.109Z,100.00
2018-11-21T08:40:04.316Z,100.00
2018-11-21T08:42:32.442Z,100.00
2018-11-21T08:45:00.577Z,100.00
2018-11-21T08:47:28.707Z,100.00
2018-11-21T08:49:56.897Z,100.00
2018-11-21T08:52:25.014Z,100.00
2018-11-21T08:54:53.171Z,100.00
2018-11-21T08:57:21.374Z,100.00
2018-11-21T08:59:49.506Z,100.00
2018-11-21T09:02:17.710Z,100.00
2018-11-21T09:04:46.144Z,100.00
2018-11-21T09:07:14.276Z,100.00
2018-11-21T09:09:42.409Z,100.00
2018-11-21T09:12:11.167Z,100.00
2018-11-21T09:14:38.633Z,100.00
2018-11-21T09:17:06.738Z,100.00
2018-11-21T09:19:34.873Z,100.00
2018-11-21T09:22:02.992Z,100.00
2018-11-21T09:24:31.169Z,100.00
2018-11-21T09:26:59.326Z,100.00
2018-11-21T09:29:27.523Z,100.00
2018-11-21T09:31:55.656Z,100.00
2018-11-21T09:34:23.773Z,100.00
2018-11-21T09:36:51.914Z,100.00
2018-11-21T09:39:20.022Z,99.98
2018-11-21T09:41:48.968Z,99.66
2018-11-21T09:44:17.111Z,99.77
2018-11-21T09:46:45.240Z,99.97
2018-11-21T09:49:13.425Z,99.97
2018-11-21T09:51:41.520Z,99.81
2018-11-21T09:54:09.632Z,99.38
2018-11-21T09:56:37.745Z,98.95
2018-11-21T09:59:05.851Z,98.62
2018-11-21T10:02:26.750Z,97.58
2018-11-21T10:04:54.886Z,97.24
2018-11-21T10:07:22.995Z,97.42
2018-11-21T10:09:51.746Z,98.19
2018-11-21T10:12:20.141Z,98.65
2018-11-21T10:14:48.278Z,99.02
2018-11-21T10:17:16.399Z,98.86
2018-11-21T10:19:44.527Z,98.83
2018-11-21T10:22:12.635Z,99.03
2018-11-21T10:24:40.739Z,98.48
2018-11-21T10:27:08.866Z,98.50
2018-11-21T10:29:37.047Z,98.12
2018-11-21T10:32:05.244Z,98.10
2018-11-21T10:34:33.399Z,98.56
2018-11-21T10:37:01.520Z,98.21
2018-11-21T10:39:29.630Z,98.15
2018-11-21T10:41:57.783Z,98.36
2018-11-21T10:44:25.872Z,97.89
2018-11-21T10:46:54.012Z,97.84
2018-11-21T10:49:22.111Z,98.07
2018-11-21T10:51:50.216Z,98.14
2018-11-21T10:54:18.313Z,97.42
2018-11-21T10:56:46.771Z,96.73
2018-11-21T10:59:16.777Z,96.80
2018-11-21T11:02:02.678Z,96.61
2018-11-21T11:04:34.861Z,96.59
2018-11-21T11:07:20.907Z,95.99
2018-11-21T11:10:03.186Z,96.40
2018-11-21T11:13:08.947Z,96.53
2018-11-21T11:15:51.582Z,96.51
2018-11-21T11:18:44.675Z,96.41
2018-11-21T11:21:31.933Z,96.59
2018-11-21T11:24:18.330Z,96.99
2018-11-21T11:27:05.176Z,96.39
2018-11-21T11:29:55.463Z,95.96
2018-11-21T11:32:48.462Z,95.46
2018-11-21T11:35:38.358Z,95.34
2018-11-21T11:38:34.340Z,94.75
2018-11-21T11:41:24.154Z,94.74
2018-11-21T11:44:11.487Z,94.73
2018-11-21T11:46:51.031Z,95.39
2018-11-21T11:49:53.199Z,94.63
2018-11-21T11:52:37.686Z,94.60
2018-11-21T11:55:24.893Z,94.57
2018-11-21T11:58:12.137Z,95.05
2018-11-21T12:00:58.451Z,96.06
2018-11-21T12:03:44.572Z,96.18
2018-11-21T12:06:21.877Z,95.68
2018-11-21T12:09:07.732Z,95.60
2018-11-21T12:11:53.709Z,95.86
2018-11-21T12:14:41.935Z,95.79
2018-11-21T12:17:40.822Z,95.41
2018-11-21T12:20:26.780Z,94.94
2018-11-21T12:23:12.680Z,95.54
2018-11-21T12:25:58.963Z,95.61
2018-11-21T12:28:52.315Z,95.97
2018-11-21T12:31:38.417Z,95.60
2018-11-21T12:34:24.210Z,94.86
2018-11-21T12:37:10.241Z,95.03
2018-11-21T12:39:52.891Z,95.07
2018-11-21T12:42:33.562Z,95.42
2018-11-21T12:45:32.642Z,95.25
2018-11-21T12:48:10.386Z,94.97
2018-11-21T12:50:56.147Z,94.84
2018-11-21T12:53:58.567Z,94.78
2018-11-21T12:56:49.766Z,94.78
2018-11-21T12:59:41.035Z,94.98
2018-11-21T13:02:20.985Z,95.04
2018-11-21T13:05:09.365Z,94.96
2018-11-21T13:07:55.402Z,94.85
2018-11-21T13:10:42.641Z,94.51
2018-11-21T13:13:35.708Z,94.02
2018-11-21T13:16:25.900Z,93.88
2018-11-21T13:19:24.597Z,94.17
2018-11-21T13:22:10.160Z,94.26
2018-11-21T13:25:06.291Z,94.28
2018-11-21T13:27:44.224Z,94.14
2018-11-21T13:30:27.069Z,94.13
2018-11-21T13:33:17.367Z,93.99
2018-11-21T13:36:05.933Z,93.99
2018-11-21T13:39:11.363Z,93.90
2018-11-21T13:41:53.436Z,93.99
2018-11-21T13:44:34.494Z,94.06
2018-11-21T13:47:21.734Z,94.14
2018-11-21T13:50:03.333Z,93.93
2018-11-21T13:52:53.117Z,94.30
2018-11-21T13:55:21.221Z,94.17
2018-11-21T13:57:49.308Z,94.04
2018-11-21T14:00:17.408Z,94.04
2018-11-21T14:02:45.557Z,94.30
2018-11-21T14:05:13.652Z,94.16
2018-11-21T14:07:41.779Z,94.47
2018-11-21T14:10:11.250Z,94.21
2018-11-21T14:12:39.543Z,94.48
2018-11-21T14:15:08.768Z,94.84
2018-11-21T14:17:36.904Z,94.82
2018-11-21T14:20:08.497Z,94.41
2018-11-21T14:22:36.811Z,94.49
2018-11-21T14:25:06.310Z,94.46
2018-11-21T14:27:34.458Z,94.74
2018-11-21T14:30:02.569Z,94.77
2018-11-21T14:32:30.703Z,94.81
2018-11-21T14:34:58.806Z,93.80
2018-11-21T14:37:26.935Z,93.44
2018-11-21T14:39:55.062Z,93.63
2018-11-21T14:42:23.180Z,93.46
2018-11-21T14:44:51.270Z,93.52
2018-11-21T14:47:19.430Z,93.78
2018-11-21T14:49:51.872Z,93.96
2018-11-21T14:52:19.992Z,93.23
2018-11-21T14:54:48.185Z,92.95
2018-11-21T14:57:16.325Z,93.09
2018-11-21T14:59:44.438Z,93.09
2018-11-21T15:02:12.575Z,93.11
2018-11-21T15:04:40.680Z,93.44
2018-11-21T15:07:08.815Z,93.37
2018-11-21T15:09:36.931Z,93.46
2018-11-21T15:12:05.456Z,93.74
2018-11-21T15:14:33.575Z,93.25
2018-11-21T15:17:01.760Z,93.23
2018-11-21T15:19:29.896Z,93.54
2018-11-21T15:21:58.001Z,93.78
2018-11-21T15:24:26.144Z,93.76
2018-11-21T15:26:54.244Z,94.19
2018-11-21T15:29:22.362Z,94.07
2018-11-21T15:31:50.461Z,93.98
2018-11-21T15:34:18.583Z,93.98
2018-11-21T15:36:46.708Z,93.92
2018-11-21T15:39:14.839Z,94.18
2018-11-21T15:41:42.963Z,93.47
2018-11-21T15:44:11.076Z,93.94
2018-11-21T15:46:45.430Z,94.15
2018-11-21T15:49:07.323Z,94.63
2018-11-21T15:51:35.449Z,94.69
2018-11-21T15:54:03.879Z,94.83
2018-11-21T15:56:32.408Z,95.00
2018-11-21T15:59:00.504Z,94.98
2018-11-21T16:01:28.607Z,94.66
2018-11-21T16:03:56.762Z,93.93
2018-11-21T16:06:24.889Z,94.38
2018-11-21T16:08:53.008Z,94.62
2018-11-21T16:11:21.124Z,94.92
2018-11-21T16:13:49.230Z,95.20
2018-11-21T16:16:17.330Z,95.31
2018-11-21T16:18:45.477Z,95.44
2018-11-21T16:21:13.588Z,95.65
2018-11-21T16:23:41.710Z,95.53
2018-11-21T16:26:09.824Z,95.61
2018-11-21T16:28:37.968Z,95.54
2018-11-21T16:31:06.430Z,95.63
2018-11-21T16:33:34.553Z,95.32
2018-11-21T16:36:03.563Z,94.93
2018-11-21T16:38:31.703Z,94.92
2018-11-21T16:40:59.809Z,94.84
2018-11-21T16:43:27.935Z,94.89
2018-11-21T16:45:57.312Z,95.27
2018-11-21T16:48:25.446Z,95.58
2018-11-21T16:50:53.602Z,95.70
2018-11-21T16:53:21.762Z,95.93
2018-11-21T16:55:49.910Z,96.03
2018-11-21T16:58:18.069Z,95.90
2018-11-21T17:00:46.202Z,95.53
2018-11-21T17:03:14.310Z,94.95
2018-11-21T17:05:42.444Z,94.37
2018-11-21T17:08:10.599Z,94.37
2018-11-21T17:10:38.721Z,94.69
2018-11-21T17:13:06.854Z,95.02
2018-11-21T17:15:35.469Z,95.09
2018-11-21T17:18:03.572Z,95.32
2018-11-21T17:20:36.344Z,95.86
2018-11-21T17:23:05.420Z,95.95
2018-11-21T17:25:35.367Z,95.91
2018-11-21T17:28:03.494Z,95.93
2018-11-21T17:30:31.616Z,95.93
2018-11-21T17:32:59.726Z,95.33
2018-11-21T17:35:27.826Z,95.11
2018-11-21T17:38:01.948Z,95.20
2018-11-21T17:40:30.436Z,95.13
2018-11-21T17:42:58.911Z,95.25
2018-11-21T17:45:27.037Z,95.50
2018-11-21T17:47:55.182Z,95.61
2018-11-21T17:50:24.216Z,95.43
2018-11-21T17:52:53.710Z,95.62
2018-11-21T17:55:23.553Z,95.69
2018-11-21T17:57:51.666Z,95.73
2018-11-21T18:00:21.154Z,95.90
2018-11-21T18:02:49.290Z,95.57
2018-11-21T18:05:18.942Z,95.59
2018-11-21T18:07:47.106Z,95.63
2018-11-21T18:10:16.641Z,96.14
2018-11-21T18:12:45.262Z,96.25
2018-11-21T18:15:14.051Z,96.07
2018-11-21T18:17:44.311Z,96.08
2018-11-21T18:20:13.384Z,96.41
2018-11-21T18:22:42.195Z,96.43
2018-11-21T18:25:28.082Z,96.29
2018-11-21T18:27:56.486Z,96.24
2018-11-21T18:30:25.171Z,96.50
2018-11-21T18:32:53.287Z,96.92
2018-11-21T18:35:22.477Z,97.00
2018-11-21T18:37:50.618Z,96.78
2018-11-21T18:40:20.478Z,96.77
2018-11-21T18:42:48.767Z,96.90
2018-11-21T18:45:19.516Z,97.15
2018-11-21T18:47:48.029Z,96.85
2018-11-21T18:50:17.260Z,96.57
2018-11-21T18:52:45.732Z,96.61
2018-11-21T18:55:16.153Z,96.62
2018-11-21T18:58:30.538Z,96.72
2018-11-21T19:00:58.666Z,96.83
